createdAt,value
2018-03-27T00:01:02.849Z,62.20
2018-03-27T00:03:28.798Z,67.75
2018-03-27T00:05:54.783Z,64.27
2018-03-27T00:08:20.719Z,65.85
2018-03-27T00:10:46.717Z,62.20
2018-03-27T00:13:12.670Z,68.25
2018-03-27T00:15:38.912Z,59.70
2018-03-27T00:18:04.858Z,65.72
2018-03-27T00:20:31.604Z,57.77
2018-03-27T00:22:57.536Z,57.33
2018-03-27T00:25:23.468Z,58.25
2018-03-27T00:27:49.472Z,62.30
2018-03-27T00:30:16.168Z,63.33
2018-03-27T00:32:42.131Z,59.75
2018-03-27T00:35:08.847Z,69.12
2018-03-27T00:37:34.837Z,58.13
2018-03-27T00:40:00.796Z,63.97
2018-03-27T00:42:26.889Z,62.70
2018-03-27T00:44:52.845Z,61.97
2018-03-27T00:47:18.848Z,65.60
2018-03-27T00:49:44.805Z,67.00
2018-03-27T00:52:11.488Z,64.25
2018-03-27T00:54:37.476Z,60.80
2018-03-27T00:57:03.409Z,66.15
2018-03-27T00:59:29.496Z,61.43
2018-03-27T01:01:55.456Z,71.57
2018-03-27T01:04:21.429Z,60.63
2018-03-27T01:06:47.373Z,74.18
2018-03-27T01:09:14.085Z,66.17
2018-03-27T01:11:40.021Z,76.85
2018-03-27T01:14:06.119Z,73.30
2018-03-27T01:16:32.224Z,69.72
2018-03-27T01:18:58.241Z,69.75
2018-03-27T01:21:24.224Z,73.47
2018-03-27T01:23:50.156Z,61.50
2018-03-27T01:26:16.869Z,69.83
2018-03-27T01:28:42.819Z,73.87
2018-03-27T01:31:09.657Z,71.23
2018-03-27T01:33:36.341Z,67.32
2018-03-27T01:36:02.318Z,70.32
2018-03-27T01:38:29.009Z,63.05
2018-03-27T01:40:54.990Z,77.00
2018-03-27T01:43:20.996Z,73.65
2018-03-27T01:45:47.824Z,72.68
2018-03-27T01:48:13.832Z,59.25
2018-03-27T01:50:39.776Z,66.05
2018-03-27T01:53:05.765Z,68.70
2018-03-27T01:55:31.720Z,67.68
2018-03-27T01:57:57.704Z,62.88
2018-03-27T02:00:23.641Z,58.05
2018-03-27T02:02:49.582Z,65.50
2018-03-27T02:05:15.553Z,68.00
2018-03-27T02:07:41.508Z,69.43
2018-03-27T02:10:07.596Z,63.30
2018-03-27T02:12:33.529Z,65.97
2018-03-27T02:14:59.479Z,70.47
2018-03-27T02:17:25.569Z,66.97
2018-03-27T02:19:51.552Z,64.60
2018-03-27T02:22:18.266Z,59.70
2018-03-27T02:24:44.216Z,64.40
2018-03-27T02:27:10.969Z,58.15
2018-03-27T02:29:36.912Z,64.65
2018-03-27T02:32:03.029Z,64.07
2018-03-27T02:34:29.073Z,64.62
2018-03-27T02:36:55.081Z,59.58
2018-03-27T02:39:21.011Z,64.10
2018-03-27T02:41:46.964Z,60.87
2018-03-27T02:44:12.953Z,62.90
2018-03-27T02:46:38.898Z,60.08
2018-03-27T02:49:04.981Z,60.10
2018-03-27T02:51:30.926Z,56.28
2018-03-27T02:53:56.899Z,59.13
2018-03-27T02:56:22.832Z,53.83
2018-03-27T02:58:49.598Z,62.87
2018-03-27T03:01:15.562Z,58.05
2018-03-27T03:03:41.545Z,53.92
2018-03-27T03:06:07.521Z,56.10
2018-03-27T03:08:33.449Z,66.28
2018-03-27T03:10:59.519Z,58.73
2018-03-27T03:13:25.476Z,61.80
2018-03-27T03:15:51.597Z,54.22
2018-03-27T03:18:17.539Z,58.05
2018-03-27T03:20:43.516Z,56.33
2018-03-27T03:23:09.480Z,60.28
2018-03-27T03:25:35.485Z,63.17
2018-03-27T03:28:01.461Z,66.45
2018-03-27T03:30:27.409Z,65.30
2018-03-27T03:32:53.498Z,61.47
2018-03-27T03:35:20.191Z,51.97
2018-03-27T03:37:46.172Z,54.28
2018-03-27T03:40:12.164Z,63.47
2018-03-27T03:42:38.272Z,62.05
2018-03-27T03:45:04.244Z,60.08
2018-03-27T03:47:30.181Z,60.42
2018-03-27T03:49:56.305Z,53.40
2018-03-27T03:52:22.260Z,69.68
2018-03-27T03:54:48.232Z,60.70
2018-03-27T03:57:14.187Z,59.00
2018-03-27T03:59:40.136Z,57.28
2018-03-27T04:02:06.229Z,62.33
2018-03-27T04:04:32.157Z,69.43
2018-03-27T04:06:58.145Z,65.53
2018-03-27T04:09:24.101Z,67.20
2018-03-27T04:11:50.087Z,67.32
2018-03-27T04:14:16.175Z,73.07
2018-03-27T04:16:42.165Z,69.35
2018-03-27T04:19:08.093Z,70.20
2018-03-27T04:21:34.116Z,71.90
2018-03-27T04:24:00.048Z,69.37
2018-03-27T04:26:26.024Z,66.07
2018-03-27T04:28:51.992Z,61.30
2018-03-27T04:31:17.950Z,75.12
2018-03-27T04:33:43.917Z,60.25
2018-03-27T04:36:09.865Z,58.95
2018-03-27T04:38:35.863Z,59.63
2018-03-27T04:41:01.813Z,60.70
2018-03-27T04:43:27.760Z,64.45
2018-03-27T04:45:54.483Z,57.23
2018-03-27T04:48:20.448Z,60.35
2018-03-27T04:50:46.381Z,56.67
2018-03-27T04:53:12.368Z,67.10
2018-03-27T04:55:39.069Z,71.05
2018-03-27T04:58:05.153Z,61.10
2018-03-27T05:00:31.081Z,62.62
2018-03-27T05:02:57.062Z,65.70
2018-03-27T05:05:23.748Z,63.10
2018-03-27T05:07:49.742Z,65.53
2018-03-27T05:10:15.676Z,68.45
2018-03-27T05:12:41.748Z,60.77
2018-03-27T05:15:08.009Z,64.53
2018-03-27T05:17:34.713Z,65.93
2018-03-27T05:20:00.731Z,62.65
2018-03-27T05:22:26.664Z,65.53
2018-03-27T05:24:52.628Z,62.20
2018-03-27T05:27:18.568Z,57.40
2018-03-27T05:29:44.554Z,61.57
2018-03-27T05:32:10.496Z,62.58
2018-03-27T05:34:43.978Z,60.90
2018-03-27T05:37:10.714Z,61.35
2018-03-27T05:39:37.430Z,67.28
2018-03-27T05:42:03.368Z,63.33
2018-03-27T05:44:30.092Z,55.37
2018-03-27T05:51:59.664Z,65.28
2018-03-27T05:54:25.595Z,56.78
2018-03-27T05:56:51.572Z,60.57
2018-03-27T05:59:17.516Z,60.88
2018-03-27T06:01:44.405Z,60.53
2018-03-27T06:04:10.363Z,73.57
2018-03-27T06:06:36.420Z,61.05
2018-03-27T06:09:02.373Z,70.12
2018-03-27T06:11:28.348Z,62.65
2018-03-27T06:13:55.033Z,62.60
2018-03-27T06:16:21.056Z,64.28
2018-03-27T06:18:47.040Z,69.00
2018-03-27T06:21:13.731Z,65.97
2018-03-27T06:23:39.907Z,69.15
2018-03-27T06:26:05.866Z,64.43
2018-03-27T06:28:31.826Z,56.13
2018-03-27T06:30:57.840Z,69.45
2018-03-27T06:33:23.981Z,67.50
2018-03-27T06:35:49.922Z,69.07
2018-03-27T06:38:16.719Z,62.80
2018-03-27T06:40:42.656Z,67.57
2018-03-27T06:43:08.636Z,73.07
2018-03-27T06:45:34.585Z,59.50
2018-03-27T06:48:00.532Z,60.90
2018-03-27T06:50:26.528Z,59.60
2018-03-27T06:52:52.564Z,62.10
2018-03-27T06:55:18.483Z,64.43
2018-03-27T06:57:44.580Z,64.10
2018-03-27T07:00:10.532Z,68.47
2018-03-27T07:02:36.506Z,70.03
2018-03-27T07:05:02.439Z,68.15
2018-03-27T07:07:28.408Z,62.00
2018-03-27T07:09:54.358Z,65.70
2018-03-27T07:12:21.167Z,63.53
2018-03-27T07:14:47.271Z,53.90
2018-03-27T07:17:13.368Z,53.55
2018-03-27T07:19:39.310Z,57.25
2018-03-27T07:22:05.267Z,46.23
2018-03-27T07:24:31.228Z,52.03
2018-03-27T07:26:57.232Z,49.35
2018-03-27T07:29:23.288Z,48.90
2018-03-27T07:31:49.229Z,45.72
2018-03-27T07:34:15.198Z,47.53
2018-03-27T07:36:41.872Z,48.25
2018-03-27T07:39:07.845Z,45.22
2018-03-27T07:41:33.784Z,45.78
2018-03-27T07:43:59.753Z,45.23
2018-03-27T07:46:25.835Z,47.97
2018-03-27T07:48:51.792Z,46.80
2018-03-27T07:51:17.797Z,45.00
2018-03-27T07:53:43.752Z,44.38
2018-03-27T07:56:09.732Z,42.20
2018-03-27T07:58:35.674Z,42.75
2018-03-27T08:01:02.375Z,41.23
2018-03-27T08:03:29.198Z,44.20
2018-03-27T08:05:55.192Z,43.72
2018-03-27T08:08:21.144Z,48.05
2018-03-27T08:10:47.091Z,45.33
2018-03-27T08:13:13.069Z,40.47
2018-03-27T08:15:39.158Z,36.85
2018-03-27T08:18:05.237Z,38.25
2018-03-27T08:20:31.203Z,34.83
2018-03-27T08:22:57.211Z,38.80
2018-03-27T08:25:23.169Z,38.85
2018-03-27T08:27:49.136Z,61.73
2018-03-27T08:30:15.852Z,38.00
2018-03-27T08:32:41.795Z,39.05
2018-03-27T08:35:08.661Z,36.97
2018-03-27T08:37:34.592Z,34.22
2018-03-27T08:40:00.562Z,24.30
2018-03-27T08:42:26.508Z,23.52
2018-03-27T08:44:53.225Z,29.37
2018-03-27T08:47:19.169Z,26.05
2018-03-27T08:49:45.996Z,29.10
2018-03-27T08:52:11.937Z,30.50
2018-03-27T08:54:38.683Z,23.10
2018-03-27T08:57:05.369Z,24.10
2018-03-27T08:59:31.336Z,20.58
2018-03-27T09:01:58.046Z,21.17
2018-03-27T09:04:23.984Z,21.80
2018-03-27T09:06:50.068Z,23.87
2018-03-27T09:09:16.016Z,21.33
2018-03-27T09:11:42.017Z,21.77
2018-03-27T09:14:08.107Z,29.55
2018-03-27T09:16:34.085Z,27.17
2018-03-27T09:19:00.075Z,24.25
2018-03-27T09:21:26.152Z,23.05
2018-03-27T09:23:52.825Z,20.48
2018-03-27T09:26:18.825Z,21.85
2018-03-27T09:28:45.516Z,24.02
2018-03-27T09:31:11.488Z,23.52
2018-03-27T09:33:37.454Z,25.57
2018-03-27T09:36:03.409Z,24.20
2018-03-27T09:38:41.459Z,22.60
2018-03-27T09:41:42.984Z,28.83
2018-03-27T09:44:09.900Z,18.20
2018-03-27T09:46:35.867Z,22.45
2018-03-27T09:49:01.851Z,20.77
2018-03-27T09:51:27.821Z,16.77
2018-03-27T09:53:53.802Z,21.67
2018-03-27T09:56:19.764Z,21.20
2018-03-27T09:58:45.890Z,16.20
2018-03-27T10:01:11.835Z,17.33
2018-03-27T10:03:37.779Z,20.47
2018-03-27T10:06:03.743Z,17.27
2018-03-27T10:08:29.687Z,14.70
2018-03-27T10:10:55.680Z,14.53
2018-03-27T10:13:22.362Z,15.63
2018-03-27T10:15:48.624Z,13.60
2018-03-27T10:18:14.580Z,11.70
2018-03-27T10:20:40.527Z,13.37
2018-03-27T10:23:06.492Z,12.43
2018-03-27T10:25:33.199Z,11.10
2018-03-27T10:27:59.179Z,13.88
2018-03-27T10:30:25.124Z,11.77
2018-03-27T10:32:51.204Z,13.33
2018-03-27T10:35:17.137Z,16.35
2018-03-27T10:37:43.853Z,14.20
2018-03-27T10:40:09.796Z,13.27
2018-03-27T10:42:36.548Z,13.30
2018-03-27T10:45:02.472Z,13.73
2018-03-27T10:47:29.185Z,16.77
2018-03-27T10:49:55.142Z,15.95
2018-03-27T10:52:21.123Z,14.90
2018-03-27T10:54:47.084Z,16.37
2018-03-27T10:57:13.208Z,19.00
2018-03-27T10:59:39.161Z,16.48
2018-03-27T11:02:05.108Z,18.37
2018-03-27T11:04:31.068Z,15.13
2018-03-27T11:06:57.033Z,16.15
2018-03-27T11:09:23.020Z,16.77
2018-03-27T11:11:48.974Z,19.70
2018-03-27T11:14:15.065Z,20.60
2018-03-27T11:16:41.148Z,17.37
2018-03-27T11:19:07.101Z,17.12
2018-03-27T11:21:33.109Z,17.37
2018-03-27T11:23:59.779Z,16.37
2018-03-27T11:26:25.747Z,22.17
2018-03-27T11:28:51.712Z,18.90
2018-03-27T11:31:17.679Z,18.37
2018-03-27T11:33:43.636Z,21.07
2018-03-27T11:36:10.332Z,17.53
2018-03-27T11:38:37.217Z,17.33
2018-03-27T11:41:03.902Z,18.95
2018-03-27T11:43:29.870Z,16.83
2018-03-27T11:45:55.816Z,17.30
2018-03-27T11:48:21.778Z,17.53
2018-03-27T11:50:47.865Z,16.60
2018-03-27T11:53:13.811Z,15.52
2018-03-27T11:55:39.817Z,16.40
2018-03-27T11:58:05.815Z,16.90
2018-03-27T12:00:31.762Z,16.52
2018-03-27T12:02:57.907Z,15.87
2018-03-27T12:05:23.894Z,17.62
2018-03-27T12:07:50.618Z,18.08
2018-03-27T12:10:17.317Z,20.73
2018-03-27T12:12:43.252Z,20.98
2018-03-27T12:15:09.508Z,21.57
2018-03-27T12:17:35.456Z,18.65
2018-03-27T12:20:01.412Z,19.57
2018-03-27T12:22:27.409Z,18.50
2018-03-27T12:24:53.408Z,16.83
2018-03-27T12:27:19.397Z,18.60
2018-03-27T12:29:45.948Z,16.40
2018-03-27T12:32:11.920Z,18.87
2018-03-27T12:34:37.859Z,20.12
2018-03-27T12:37:03.905Z,17.70
2018-03-27T12:39:29.876Z,17.50
2018-03-27T12:41:55.920Z,21.05
2018-03-27T12:44:21.867Z,17.25
2018-03-27T12:46:47.878Z,17.33
2018-03-27T12:49:13.846Z,19.98
2018-03-27T12:51:40.724Z,18.13
2018-03-27T12:54:06.680Z,16.52
2018-03-27T12:56:32.703Z,17.23
2018-03-27T12:58:58.814Z,17.10
2018-03-27T13:01:24.768Z,16.62
2018-03-27T13:03:50.756Z,17.67
2018-03-27T13:06:16.740Z,16.70
2018-03-27T13:08:42.736Z,17.08
2018-03-27T13:11:08.735Z,16.35
2018-03-27T13:13:34.910Z,14.55
2018-03-27T13:16:01.136Z,20.02
2018-03-27T13:18:27.131Z,14.60
2018-03-27T13:20:53.078Z,15.00
2018-03-27T13:23:19.850Z,19.20
2018-03-27T13:25:45.833Z,16.45
2018-03-27T13:28:12.532Z,15.15
2018-03-27T13:30:38.652Z,10.00
2018-03-27T13:33:04.617Z,9.90
2018-03-27T13:35:31.357Z,10.40
2018-03-27T13:37:58.060Z,10.93
2018-03-27T13:40:24.053Z,11.45
2018-03-27T13:42:50.020Z,15.55
2018-03-27T13:45:16.121Z,11.60
2018-03-27T13:47:42.101Z,12.45
2018-03-27T13:50:08.050Z,10.80
2018-03-27T13:52:34.042Z,9.80
2018-03-27T13:55:00.764Z,11.07
2018-03-27T13:57:26.807Z,10.13
2018-03-27T13:59:52.789Z,11.25
2018-03-27T14:02:18.797Z,9.85
2018-03-27T14:04:44.786Z,12.73
2018-03-27T14:07:10.736Z,12.05
2018-03-27T14:09:36.770Z,10.27
2018-03-27T14:12:02.680Z,10.52
2018-03-27T14:14:28.920Z,10.30
2018-03-27T14:16:54.856Z,10.27
2018-03-27T14:19:20.837Z,11.60
2018-03-27T14:21:46.810Z,9.40
2018-03-27T14:24:13.553Z,9.18
2018-03-27T14:26:39.514Z,9.82
2018-03-27T14:29:05.473Z,9.97
2018-03-27T14:31:31.565Z,10.83
2018-03-27T14:33:57.516Z,9.60
2018-03-27T14:36:23.527Z,10.40
2018-03-27T14:38:49.486Z,13.75
2018-03-27T14:41:15.494Z,9.97
2018-03-27T14:43:41.433Z,9.77
2018-03-27T14:46:07.380Z,10.70
2018-03-27T14:48:34.100Z,9.83
2018-03-27T14:51:00.041Z,10.50
2018-03-27T14:53:26.876Z,11.63
2018-03-27T14:55:53.569Z,10.15
2018-03-27T14:58:19.548Z,10.38
2018-03-27T15:00:45.505Z,9.50
2018-03-27T15:03:11.612Z,12.50
2018-03-27T15:05:37.569Z,9.38
2018-03-27T15:08:03.536Z,10.17
2018-03-27T15:10:29.499Z,11.03
2018-03-27T15:12:55.464Z,12.23
2018-03-27T15:15:22.336Z,11.60
2018-03-27T15:17:48.286Z,10.82
2018-03-27T15:20:14.249Z,10.23
2018-03-27T15:22:41.465Z,11.30
2018-03-27T15:25:07.424Z,12.68
2018-03-27T15:27:33.556Z,11.37
2018-03-27T15:30:00.250Z,10.00
2018-03-27T15:32:26.272Z,10.25
2018-03-27T15:34:52.216Z,13.20
2018-03-27T15:37:18.204Z,14.87
2018-03-27T15:39:44.180Z,10.35
2018-03-27T15:42:10.317Z,12.13
2018-03-27T15:44:37.021Z,9.85
2018-03-27T15:47:03.018Z,11.32
2018-03-27T15:49:28.999Z,11.88
2018-03-27T15:51:54.961Z,13.75
2018-03-27T15:54:21.062Z,10.53
2018-03-27T15:56:47.032Z,9.90
2018-03-27T15:59:13.035Z,15.40
2018-03-27T16:01:38.990Z,12.48
2018-03-27T16:04:04.988Z,11.88
2018-03-27T16:06:30.942Z,12.17
2018-03-27T16:08:57.662Z,12.40
2018-03-27T16:11:23.637Z,11.88
2018-03-27T16:13:49.641Z,13.65
2018-03-27T16:16:15.777Z,11.05
2018-03-27T16:18:41.905Z,12.10
2018-03-27T16:21:07.840Z,12.68
2018-03-27T16:23:33.788Z,15.13
2018-03-27T16:26:07.548Z,12.63
2018-03-27T16:28:40.752Z,13.90
2018-03-27T16:31:06.752Z,12.43
2018-03-27T16:33:33.432Z,13.18
2018-03-27T16:35:59.387Z,14.68
2018-03-27T16:38:25.373Z,12.10
2018-03-27T16:40:51.359Z,13.70
2018-03-27T16:43:18.244Z,17.50
2018-03-27T16:45:44.238Z,13.88
2018-03-27T16:48:10.252Z,15.80
2018-03-27T16:50:37.028Z,13.93
2018-03-27T16:53:03.037Z,16.02
2018-03-27T16:55:28.996Z,13.65
2018-03-27T16:57:54.945Z,13.40
2018-03-27T17:00:20.933Z,13.80
2018-03-27T17:02:46.895Z,16.83
2018-03-27T17:05:12.902Z,16.60
2018-03-27T17:07:38.861Z,16.08
2018-03-27T17:10:04.838Z,12.33
2018-03-27T17:12:30.819Z,18.60
2018-03-27T17:14:56.861Z,15.25
2018-03-27T17:17:22.826Z,15.32
2018-03-27T17:19:48.876Z,17.37
2018-03-27T17:22:14.835Z,13.80
2018-03-27T17:24:40.858Z,14.27
2018-03-27T17:27:06.923Z,15.65
2018-03-27T17:29:33.619Z,13.98
2018-03-27T17:31:59.581Z,14.55
2018-03-27T17:34:26.310Z,14.33
2018-03-27T17:36:52.336Z,12.75
2018-03-27T17:39:18.287Z,12.55
2018-03-27T17:41:44.290Z,16.30
2018-03-27T17:44:10.284Z,13.15
2018-03-27T17:46:36.417Z,12.95
2018-03-27T17:49:02.443Z,15.57
2018-03-27T17:51:28.589Z,12.88
2018-03-27T17:53:55.332Z,13.85
2018-03-27T17:56:22.035Z,16.08
2018-03-27T17:58:48.056Z,15.13
2018-03-27T18:01:14.070Z,17.60
2018-03-27T18:03:40.097Z,15.32
2018-03-27T18:06:06.063Z,16.08
2018-03-27T18:08:32.908Z,17.00
2018-03-27T18:10:59.616Z,16.62
2018-03-27T18:13:25.601Z,16.00
2018-03-27T18:15:51.729Z,16.23
2018-03-27T18:18:17.740Z,15.00
2018-03-27T18:20:43.700Z,14.60
2018-03-27T18:23:09.724Z,17.10
2018-03-27T18:25:35.693Z,17.73
2018-03-27T18:28:01.677Z,15.93
2018-03-27T18:30:27.626Z,16.77
2018-03-27T18:32:54.402Z,17.67
2018-03-27T18:35:20.394Z,19.42
2018-03-27T18:37:47.096Z,21.40
2018-03-27T18:40:13.180Z,15.85
2018-03-27T18:42:39.126Z,17.67
2018-03-27T18:45:05.132Z,19.40
2018-03-27T18:47:31.083Z,18.23
2018-03-27T18:49:57.073Z,19.60
2018-03-27T18:52:23.040Z,18.42
2018-03-27T18:54:49.005Z,16.27
2018-03-27T18:57:15.157Z,15.68
2018-03-27T18:59:41.108Z,19.75
2018-03-27T19:02:07.086Z,19.37
2018-03-27T19:04:33.074Z,21.67
2018-03-27T19:06:59.068Z,19.92
2018-03-27T19:09:25.069Z,17.05
2018-03-27T19:11:51.033Z,22.60
2018-03-27T19:14:17.153Z,19.10
2018-03-27T19:16:43.255Z,20.30
2018-03-27T19:19:09.241Z,19.83
2018-03-27T19:21:35.204Z,17.37
2018-03-27T19:24:01.155Z,20.10
2018-03-27T19:26:27.163Z,17.93
2018-03-27T19:28:53.117Z,21.80
2018-03-27T19:31:19.960Z,19.87
2018-03-27T19:33:46.689Z,17.15
2018-03-27T19:36:13.380Z,20.00
2018-03-27T19:38:39.374Z,19.52
2018-03-27T19:41:05.338Z,20.67
2018-03-27T19:43:31.400Z,20.00
2018-03-27T19:45:58.161Z,23.00
2018-03-27T19:48:24.162Z,19.80
2018-03-27T19:50:50.863Z,18.83
2018-03-27T19:53:16.839Z,20.05
2018-03-27T19:55:42.801Z,18.73
2018-03-27T19:58:08.819Z,20.62
2018-03-27T20:00:34.778Z,24.65
2018-03-27T20:03:00.889Z,21.90
2018-03-27T20:05:26.861Z,20.20
2018-03-27T20:07:52.944Z,20.33
2018-03-27T20:10:18.940Z,19.98
2018-03-27T20:12:44.907Z,21.77
2018-03-27T20:15:11.805Z,22.65
2018-03-27T20:17:37.767Z,20.98
2018-03-27T20:20:04.648Z,21.12
2018-03-27T20:22:30.604Z,24.10
2018-03-27T20:24:56.561Z,20.83
2018-03-27T20:27:22.593Z,19.92
2018-03-27T20:29:48.546Z,18.73
2018-03-27T20:32:14.656Z,20.63
2018-03-27T20:34:40.613Z,21.15
2018-03-27T20:37:06.610Z,19.70
2018-03-27T20:39:32.597Z,25.80
2018-03-27T20:41:59.353Z,20.60
2018-03-27T20:44:25.358Z,25.20
2018-03-27T20:46:51.290Z,24.30
2018-03-27T20:49:18.033Z,21.93
2018-03-27T20:51:44.789Z,25.08
2018-03-27T20:54:10.779Z,23.35
2018-03-27T20:56:37.485Z,26.00
2018-03-27T20:59:03.492Z,22.20
2018-03-27T21:01:29.464Z,23.83
2018-03-27T21:03:55.476Z,25.65
2018-03-27T21:06:21.446Z,26.52
2018-03-27T21:08:47.436Z,21.45
2018-03-27T21:11:14.158Z,24.17
2018-03-27T21:13:40.114Z,26.33
2018-03-27T21:16:06.221Z,23.60
2018-03-27T21:18:32.962Z,22.37
2018-03-27T21:20:59.804Z,22.80
2018-03-27T21:23:26.501Z,23.15
2018-03-27T21:25:52.579Z,23.60
2018-03-27T21:28:19.280Z,21.83
2018-03-27T21:30:45.282Z,20.35
2018-03-27T21:33:11.234Z,18.87
2018-03-27T21:35:37.320Z,26.10
2018-03-27T21:38:03.281Z,24.40
2018-03-27T21:40:29.261Z,22.90
2018-03-27T21:42:55.224Z,22.25
2018-03-27T21:45:21.193Z,18.98
2018-03-27T21:47:47.178Z,23.62
2018-03-27T21:50:13.146Z,19.92
2018-03-27T21:52:39.269Z,17.35
2018-03-27T21:55:05.253Z,22.30
2018-03-27T21:57:31.216Z,21.20
2018-03-27T21:59:57.209Z,19.77
2018-03-27T22:02:23.221Z,24.30
2018-03-27T22:04:49.194Z,18.87
2018-03-27T22:07:15.153Z,20.55
2018-03-27T22:09:41.249Z,15.75
2018-03-27T22:12:07.229Z,21.75
2018-03-27T22:14:34.110Z,18.02
2018-03-27T22:17:00.073Z,19.87
2018-03-27T22:19:26.036Z,18.93
2018-03-27T22:21:52.022Z,19.70
2018-03-27T22:24:18.156Z,19.55
2018-03-27T22:26:44.880Z,21.20
2018-03-27T22:29:10.856Z,18.62
2018-03-27T22:31:36.829Z,18.00
2018-03-27T22:34:02.808Z,18.80
2018-03-27T22:36:28.773Z,15.57
2018-03-27T22:38:54.740Z,16.40
2018-03-27T22:41:20.825Z,13.27
2018-03-27T22:43:47.513Z,15.98
2018-03-27T22:46:13.470Z,15.55
2018-03-27T22:48:39.452Z,17.80
2018-03-27T22:51:05.452Z,17.35
2018-03-27T22:53:31.425Z,14.50
2018-03-27T22:55:57.368Z,16.92
2018-03-27T22:58:23.463Z,15.83
2018-03-27T23:00:49.431Z,15.43
2018-03-27T23:03:16.163Z,15.15
2018-03-27T23:05:42.868Z,13.90
2018-03-27T23:08:08.855Z,14.05
2018-03-27T23:10:34.797Z,12.77
2018-03-27T23:13:00.757Z,16.07
2018-03-27T23:15:27.013Z,15.37
2018-03-27T23:17:53.780Z,14.90
2018-03-27T23:20:19.738Z,13.30
2018-03-27T23:22:45.713Z,13.27
2018-03-27T23:25:11.656Z,14.65
2018-03-27T23:27:37.616Z,12.20
2018-03-27T23:30:04.344Z,12.37
2018-03-27T23:32:30.299Z,11.43
2018-03-27T23:34:57.137Z,11.27
2018-03-27T23:37:23.841Z,13.40
2018-03-27T23:39:49.826Z,12.93
2018-03-27T23:42:15.776Z,10.30
2018-03-27T23:44:41.762Z,11.80
2018-03-27T23:47:07.845Z,11.07
2018-03-27T23:49:33.788Z,12.60
2018-03-27T23:51:59.792Z,10.77
2018-03-27T23:54:25.786Z,10.48
2018-03-27T23:56:51.791Z,12.65
2018-03-27T23:59:17.761Z,11.43
